Minneapolis, Minnesota
Traffic Map
Current Weather Conditions
Minneapolis, Minnesota
Few Clouds
Few Clouds
66°
Feels Like: 66°
Wind Chill: 66° Ceiling: Unl
Heat Index: 66° Visibility: 10mi
Dew Point: 42° Wind: 6mph
Humidity: 42% Direction: 160° (SSE)
Pressure: 29.92in Gusts: 0mph
Raw Report DataKMSP 172353Z 16005KT 10SM FEW250 19/06 A2992 RMK AO2 SLP133 T01890056 10228 20183 57005
Traffic Incident Summary
Active as of:
Severity:
Category:
InformationThere was an issue retrieving the traffic information for this location. Please try a different location or try again shortly.
Advertisements